createdAt,value
2018-06-20T00:00:44.754Z,0.00
2018-06-20T00:01:44.729Z,0.00
2018-06-20T00:02:44.704Z,0.00
2018-06-20T00:03:44.679Z,0.00
2018-06-20T00:04:44.658Z,0.00
2018-06-20T00:05:44.632Z,0.00
2018-06-20T00:06:44.605Z,0.00
2018-06-20T00:07:44.584Z,0.00
2018-06-20T00:08:44.561Z,0.00
2018-06-20T00:09:44.530Z,0.00
2018-06-20T00:10:44.508Z,0.00
2018-06-20T00:11:44.479Z,0.00
2018-06-20T00:12:44.462Z,0.00
2018-06-20T00:13:44.431Z,0.00
2018-06-20T00:14:44.407Z,0.00
2018-06-20T00:15:44.382Z,0.00
2018-06-20T00:16:44.360Z,0.00
2018-06-20T00:17:44.331Z,0.00
2018-06-20T00:18:44.308Z,0.00
2018-06-20T00:19:44.282Z,0.00
2018-06-20T00:20:44.263Z,0.00
2018-06-20T00:21:44.234Z,0.00
2018-06-20T00:22:44.205Z,0.00
2018-06-20T00:23:44.181Z,0.00
2018-06-20T00:24:44.158Z,0.00
2018-06-20T00:25:44.131Z,0.00
2018-06-20T00:26:44.114Z,0.00
2018-06-20T00:27:44.096Z,0.00
2018-06-20T00:28:44.058Z,0.00
2018-06-20T00:29:44.034Z,0.00
2018-06-20T00:30:44.010Z,0.00
2018-06-20T00:31:43.980Z,0.00
2018-06-20T00:32:43.956Z,0.00
2018-06-20T00:33:43.931Z,0.00
2018-06-20T00:34:43.905Z,0.00
2018-06-20T00:35:43.880Z,0.00
2018-06-20T00:36:43.856Z,0.00
2018-06-20T00:37:43.833Z,0.00
2018-06-20T00:38:43.807Z,0.00
2018-06-20T00:39:43.781Z,0.00
2018-06-20T00:40:43.755Z,0.00
2018-06-20T00:41:43.731Z,0.00
2018-06-20T00:42:43.705Z,0.00
2018-06-20T00:43:43.680Z,0.00
2018-06-20T00:44:43.667Z,0.00
2018-06-20T00:45:43.633Z,0.00
2018-06-20T00:46:43.607Z,0.00
2018-06-20T00:47:43.582Z,0.00
2018-06-20T00:48:43.557Z,0.00
2018-06-20T00:49:43.532Z,0.00
2018-06-20T00:50:43.505Z,0.00
2018-06-20T00:51:43.482Z,0.00
2018-06-20T00:52:43.462Z,0.00
2018-06-20T00:53:43.436Z,0.00
2018-06-20T00:54:43.404Z,0.00
2018-06-20T00:55:43.379Z,0.00
2018-06-20T00:56:43.356Z,0.00
2018-06-20T00:57:43.480Z,0.00
2018-06-20T00:58:43.305Z,0.00
2018-06-20T00:59:43.281Z,0.00
2018-06-20T01:00:43.253Z,0.00
2018-06-20T01:01:43.229Z,0.00
2018-06-20T01:02:43.203Z,0.00
2018-06-20T01:03:43.181Z,0.00
2018-06-20T01:04:43.160Z,0.00
2018-06-20T01:05:43.130Z,0.00
2018-06-20T01:06:43.105Z,0.00
2018-06-20T01:07:43.081Z,0.00
2018-06-20T01:08:43.057Z,0.00
2018-06-20T01:09:43.030Z,0.00
2018-06-20T01:10:43.014Z,0.00
2018-06-20T01:11:43.101Z,0.00
2018-06-20T01:12:42.958Z,0.00
2018-06-20T01:13:42.929Z,0.00
2018-06-20T01:14:42.909Z,0.00
2018-06-20T01:15:42.878Z,0.00
2018-06-20T01:16:42.864Z,0.00
2018-06-20T01:17:42.829Z,0.00
2018-06-20T01:18:42.805Z,0.00
2018-06-20T01:19:42.778Z,0.00
2018-06-20T01:20:42.762Z,0.00
2018-06-20T01:21:42.728Z,0.00
2018-06-20T01:22:42.700Z,0.00
2018-06-20T01:23:42.675Z,0.00
2018-06-20T01:24:42.652Z,0.00
2018-06-20T01:25:42.626Z,0.00
2018-06-20T01:26:42.602Z,0.00
2018-06-20T01:27:42.578Z,0.00
2018-06-20T01:28:42.549Z,0.00
2018-06-20T01:29:42.528Z,0.00
2018-06-20T01:30:42.499Z,0.00
2018-06-20T01:31:42.472Z,0.00
2018-06-20T01:32:42.452Z,0.00
2018-06-20T01:33:42.424Z,0.00
2018-06-20T01:34:42.398Z,0.00
2018-06-20T01:35:42.375Z,0.00
2018-06-20T01:36:42.349Z,0.00
2018-06-20T01:37:42.324Z,0.00
2018-06-20T01:38:42.448Z,0.00
2018-06-20T01:39:42.272Z,0.00
2018-06-20T01:40:42.246Z,0.00
2018-06-20T01:41:42.223Z,0.00
2018-06-20T01:42:42.197Z,0.00
2018-06-20T01:43:42.171Z,0.00
2018-06-20T01:44:42.145Z,0.00
2018-06-20T01:45:42.121Z,0.00
2018-06-20T01:46:42.098Z,0.00
2018-06-20T01:47:42.068Z,0.00
2018-06-20T01:48:42.045Z,0.00
2018-06-20T01:49:42.019Z,0.00
2018-06-20T01:50:41.991Z,0.00
2018-06-20T01:51:41.973Z,0.00
2018-06-20T01:52:41.942Z,0.00
2018-06-20T01:53:41.915Z,0.00
2018-06-20T01:54:41.890Z,0.00
2018-06-20T01:55:41.884Z,0.00
2018-06-20T01:56:41.841Z,0.00
2018-06-20T01:57:41.822Z,0.00
2018-06-20T01:58:41.790Z,0.00
2018-06-20T01:59:41.765Z,0.00
2018-06-20T02:00:41.737Z,0.00
2018-06-20T02:01:41.712Z,0.00
2018-06-20T02:02:41.686Z,0.00
2018-06-20T02:03:41.660Z,0.00
2018-06-20T02:04:41.644Z,0.00
2018-06-20T02:05:41.612Z,0.00
2018-06-20T02:06:41.587Z,0.00
2018-06-20T02:07:41.571Z,0.00
2018-06-20T02:08:41.537Z,0.00
2018-06-20T02:09:41.511Z,0.00
2018-06-20T02:10:41.484Z,0.00
2018-06-20T02:11:41.459Z,0.00
2018-06-20T02:12:41.431Z,0.00
2018-06-20T02:13:41.404Z,0.00
2018-06-20T02:14:41.378Z,0.00
2018-06-20T02:15:41.354Z,0.00
2018-06-20T02:16:41.331Z,0.00
2018-06-20T02:17:41.311Z,0.00
2018-06-20T02:18:41.280Z,0.00
2018-06-20T02:19:41.253Z,0.00
2018-06-20T02:20:41.227Z,0.00
2018-06-20T02:21:41.201Z,0.00
2018-06-20T02:22:41.175Z,0.00
2018-06-20T02:23:41.152Z,0.00
2018-06-20T02:24:41.125Z,0.00
2018-06-20T02:25:41.103Z,0.00
2018-06-20T02:26:41.073Z,0.00
2018-06-20T02:27:41.056Z,0.00
2018-06-20T02:28:41.029Z,5.63
2018-06-20T02:29:40.998Z,5.63
2018-06-20T02:30:40.972Z,5.63
2018-06-20T02:31:40.949Z,5.63
2018-06-20T02:32:40.926Z,5.63
2018-06-20T02:33:40.896Z,5.63
2018-06-20T02:34:40.870Z,5.63
2018-06-20T02:35:40.845Z,5.63
2018-06-20T02:36:40.833Z,11.25
2018-06-20T02:37:40.795Z,11.25
2018-06-20T02:38:40.770Z,11.25
2018-06-20T02:39:40.744Z,11.25
2018-06-20T02:40:40.718Z,11.25
2018-06-20T02:41:40.694Z,11.25
2018-06-20T02:42:40.667Z,16.88
2018-06-20T02:43:40.642Z,16.88
2018-06-20T02:44:40.616Z,16.88
2018-06-20T02:45:40.593Z,16.88
2018-06-20T02:46:40.566Z,22.50
2018-06-20T02:47:40.537Z,22.50
2018-06-20T02:48:40.514Z,22.50
2018-06-20T02:49:40.646Z,28.13
2018-06-20T02:50:40.463Z,28.13
2018-06-20T02:51:40.437Z,28.13
2018-06-20T02:52:40.459Z,33.75
2018-06-20T02:53:40.386Z,33.75
2018-06-20T02:54:40.358Z,39.38
2018-06-20T02:55:40.333Z,39.38
2018-06-20T02:56:40.313Z,45.00
2018-06-20T02:57:40.282Z,45.00
2018-06-20T02:58:40.258Z,45.00
2018-06-20T02:59:40.230Z,50.63
2018-06-20T03:00:40.238Z,50.63
2018-06-20T03:01:40.181Z,56.25
2018-06-20T03:02:40.157Z,56.25
2018-06-20T03:03:40.131Z,61.88
2018-06-20T03:04:40.103Z,67.50
2018-06-20T03:05:40.079Z,67.50
2018-06-20T03:06:40.053Z,73.13
2018-06-20T03:07:40.026Z,73.13
2018-06-20T03:08:40.016Z,78.75
2018-06-20T03:09:39.978Z,78.75
2018-06-20T03:10:39.954Z,84.38
2018-06-20T03:11:39.926Z,90.00
2018-06-20T03:12:39.900Z,90.00
2018-06-20T03:13:39.878Z,95.63
2018-06-20T03:14:39.850Z,95.63
2018-06-20T03:15:39.827Z,101.25
2018-06-20T03:16:39.797Z,101.25
2018-06-20T03:17:39.773Z,101.25
2018-06-20T03:18:39.746Z,106.88
2018-06-20T03:19:39.720Z,112.50
2018-06-20T03:20:39.696Z,112.50
2018-06-20T03:21:39.673Z,118.13
2018-06-20T03:22:39.648Z,123.75
2018-06-20T03:23:39.622Z,123.75
2018-06-20T03:24:39.743Z,129.38
2018-06-20T03:25:39.577Z,135.00
2018-06-20T03:26:39.542Z,135.00
2018-06-20T03:27:39.549Z,140.63
2018-06-20T03:28:39.493Z,146.25
2018-06-20T03:29:39.469Z,151.88
2018-06-20T03:30:39.441Z,151.88
2018-06-20T03:31:39.417Z,157.50
2018-06-20T03:32:39.388Z,163.13
2018-06-20T03:33:39.368Z,163.13
2018-06-20T03:34:39.338Z,168.75
2018-06-20T03:35:39.313Z,174.38
2018-06-20T03:36:39.292Z,196.88
2018-06-20T03:37:39.264Z,230.63
2018-06-20T03:38:39.238Z,281.25
2018-06-20T03:39:39.218Z,281.25
2018-06-20T03:40:39.188Z,292.50
2018-06-20T03:41:39.161Z,303.75
2018-06-20T03:42:39.135Z,315.00
2018-06-20T03:43:39.112Z,320.63
2018-06-20T03:44:39.088Z,331.88
2018-06-20T03:45:39.064Z,337.50
2018-06-20T03:46:39.043Z,348.75
2018-06-20T03:47:39.014Z,354.38
2018-06-20T03:48:38.986Z,360.00
2018-06-20T03:49:38.966Z,371.25
2018-06-20T03:50:38.939Z,376.88
2018-06-20T03:51:38.912Z,382.50
2018-06-20T03:52:38.886Z,393.75
2018-06-20T03:53:38.861Z,399.38
2018-06-20T03:54:38.836Z,405.00
2018-06-20T03:55:38.813Z,416.25
2018-06-20T03:56:38.793Z,421.88
2018-06-20T03:57:38.766Z,438.75
2018-06-20T03:58:38.741Z,444.38
2018-06-20T03:59:38.717Z,450.00
2018-06-20T04:00:38.694Z,455.63
2018-06-20T04:01:38.672Z,472.50
2018-06-20T04:02:38.645Z,472.50
2018-06-20T04:03:38.621Z,478.13
2018-06-20T04:04:38.596Z,489.38
2018-06-20T04:05:38.602Z,500.63
2018-06-20T04:06:38.699Z,511.88
2018-06-20T04:07:38.526Z,517.50
2018-06-20T04:08:38.504Z,523.13
2018-06-20T04:09:38.479Z,534.38
2018-06-20T04:10:38.456Z,545.63
2018-06-20T04:11:38.441Z,562.50
2018-06-20T04:12:38.417Z,573.75
2018-06-20T04:13:38.384Z,585.00
2018-06-20T04:14:38.360Z,590.63
2018-06-20T04:15:38.337Z,596.25
2018-06-20T04:16:38.314Z,607.50
2018-06-20T04:17:38.291Z,618.75
2018-06-20T04:18:38.270Z,630.00
2018-06-20T04:19:38.245Z,641.25
2018-06-20T04:20:38.225Z,652.50
2018-06-20T04:21:38.207Z,663.75
2018-06-20T04:22:38.178Z,669.38
2018-06-20T04:23:38.161Z,663.75
2018-06-20T04:24:38.132Z,686.25
2018-06-20T04:25:38.110Z,697.50
2018-06-20T04:26:38.087Z,630.00
2018-06-20T04:27:38.067Z,450.00
2018-06-20T04:28:38.044Z,495.00
2018-06-20T04:29:38.025Z,646.88
2018-06-20T04:30:38.000Z,731.25
2018-06-20T04:31:37.975Z,748.13
2018-06-20T04:32:37.954Z,562.50
2018-06-20T04:33:38.134Z,607.50
2018-06-20T04:34:37.944Z,646.88
2018-06-20T04:35:37.887Z,770.63
2018-06-20T04:36:37.869Z,826.88
2018-06-20T04:37:37.841Z,810.00
2018-06-20T04:38:37.817Z,832.50
2018-06-20T04:39:37.795Z,832.50
2018-06-20T04:40:37.775Z,849.38
2018-06-20T04:41:37.763Z,849.38
2018-06-20T04:42:37.731Z,855.00
2018-06-20T04:43:37.709Z,855.00
2018-06-20T04:44:37.750Z,860.63
2018-06-20T04:45:37.668Z,900.00
2018-06-20T04:46:37.645Z,894.38
2018-06-20T04:47:37.620Z,894.38
2018-06-20T04:48:37.600Z,905.63
2018-06-20T04:49:37.585Z,922.50
2018-06-20T04:50:37.554Z,928.13
2018-06-20T04:51:37.533Z,922.50
2018-06-20T04:52:37.525Z,950.63
2018-06-20T04:53:37.693Z,956.25
2018-06-20T04:54:37.674Z,967.50
2018-06-20T04:55:37.519Z,973.13
2018-06-20T04:56:37.628Z,978.75
2018-06-20T04:57:37.405Z,984.38
2018-06-20T04:58:37.383Z,1012.50
2018-06-20T04:59:37.362Z,1035.00
2018-06-20T05:00:37.347Z,1063.13
2018-06-20T05:01:37.529Z,1113.75
2018-06-20T05:02:37.513Z,1158.75
2018-06-20T05:03:37.281Z,1158.75
2018-06-20T05:04:37.260Z,1136.25
2018-06-20T05:05:37.281Z,1119.38
2018-06-20T05:06:37.424Z,1130.63
2018-06-20T05:07:37.202Z,1147.50
2018-06-20T05:08:37.380Z,1153.13
2018-06-20T05:09:37.358Z,1147.50
2018-06-20T05:10:37.135Z,1147.50
2018-06-20T05:11:37.317Z,1153.13
2018-06-20T05:12:37.096Z,1181.25
2018-06-20T05:13:37.076Z,1209.38
2018-06-20T05:14:37.056Z,1215.00
2018-06-20T05:15:37.035Z,1220.63
2018-06-20T05:16:37.217Z,1203.75
2018-06-20T05:17:36.994Z,1209.38
2018-06-20T05:18:36.986Z,1243.13
2018-06-20T05:19:36.954Z,1260.00
2018-06-20T05:20:36.934Z,1276.88
2018-06-20T05:21:36.914Z,1293.75
2018-06-20T05:22:36.933Z,1305.00
2018-06-20T05:23:36.874Z,1338.75
2018-06-20T05:24:36.857Z,1254.38
2018-06-20T05:25:36.839Z,1350.00
2018-06-20T05:26:36.822Z,1355.63
2018-06-20T05:27:36.798Z,1372.50
2018-06-20T05:28:36.978Z,1372.50
2018-06-20T05:30:19.115Z,1417.50
2018-06-20T05:31:18.900Z,1411.88
2018-06-20T05:32:18.874Z,1428.75
2018-06-20T05:33:19.058Z,1445.63
2018-06-20T05:34:18.835Z,1406.25
2018-06-20T05:35:18.814Z,1468.13
2018-06-20T05:36:18.795Z,1468.13
2018-06-20T05:37:18.984Z,1490.63
2018-06-20T05:38:18.765Z,1473.75
2018-06-20T05:39:18.941Z,1513.13
2018-06-20T05:40:18.719Z,1513.13
2018-06-20T05:41:18.901Z,1541.25
2018-06-20T05:42:18.883Z,1546.88
2018-06-20T05:43:18.867Z,1558.13
2018-06-20T05:44:18.844Z,1580.63
2018-06-20T05:45:18.624Z,1575.00
2018-06-20T05:46:18.809Z,1631.25
2018-06-20T05:47:18.586Z,1620.00
2018-06-20T05:48:18.770Z,1636.88
2018-06-20T05:49:18.553Z,1665.00
2018-06-20T05:50:18.733Z,1653.75
2018-06-20T05:51:18.515Z,1693.13
2018-06-20T05:52:18.695Z,1687.50
2018-06-20T05:53:19.488Z,1710.00
2018-06-20T05:54:18.458Z,1726.88
2018-06-20T05:55:18.438Z,1760.63
2018-06-20T05:56:18.421Z,1822.50
2018-06-20T05:57:18.407Z,1845.00
2018-06-20T05:58:18.387Z,1861.88
2018-06-20T05:59:18.367Z,1873.13
2018-06-20T06:00:18.350Z,1861.88
2018-06-20T06:01:18.535Z,1788.75
2018-06-20T06:02:18.527Z,1800.00
2018-06-20T06:03:18.517Z,1861.88
2018-06-20T06:04:18.489Z,1839.38
2018-06-20T06:05:18.324Z,1940.63
2018-06-20T06:06:18.242Z,1991.25
2018-06-20T06:07:18.223Z,1833.75
2018-06-20T06:08:18.205Z,1822.50
2018-06-20T06:09:18.191Z,1884.38
2018-06-20T06:10:21.200Z,1951.88
2018-06-20T06:11:18.359Z,2221.88
2018-06-20T06:12:18.143Z,1766.25
2018-06-20T06:13:18.123Z,1198.13
2018-06-20T06:14:18.106Z,1198.13
2018-06-20T06:15:18.690Z,1147.50
2018-06-20T06:16:18.273Z,1170.00
2018-06-20T06:17:18.050Z,1260.00
2018-06-20T06:18:18.035Z,1226.25
2018-06-20T06:19:18.223Z,1265.63
2018-06-20T06:20:18.000Z,1428.75
2018-06-20T06:21:18.192Z,1209.38
2018-06-20T06:22:17.971Z,1220.63
2018-06-20T06:23:18.192Z,1215.00
2018-06-20T06:24:17.943Z,1220.63
2018-06-20T06:25:18.114Z,1575.00
2018-06-20T06:26:18.100Z,1710.00
2018-06-20T06:27:17.887Z,1513.13
2018-06-20T06:28:17.858Z,1445.63
2018-06-20T06:29:17.844Z,1271.25
2018-06-20T06:30:17.824Z,1147.50
2018-06-20T06:31:17.804Z,1035.00
2018-06-20T06:32:17.988Z,1096.88
2018-06-20T06:33:17.767Z,1575.00
2018-06-20T06:34:17.953Z,2323.13
2018-06-20T06:35:17.733Z,2154.38
2018-06-20T06:36:17.709Z,1361.25
2018-06-20T06:37:17.692Z,1417.50
2018-06-20T06:38:17.678Z,2491.88
2018-06-20T06:39:17.654Z,1215.00
2018-06-20T06:40:17.635Z,1001.25
2018-06-20T06:41:17.615Z,1530.00
2018-06-20T06:42:17.596Z,2261.25
2018-06-20T06:43:17.576Z,1051.88
2018-06-20T06:44:17.558Z,2165.63
2018-06-20T06:45:17.541Z,1614.38
2018-06-20T06:46:17.525Z,2053.13
2018-06-20T06:47:17.506Z,1158.75
2018-06-20T06:48:17.483Z,2205.00
2018-06-20T06:49:17.472Z,1473.75
2018-06-20T06:50:17.448Z,2795.63
2018-06-20T06:51:17.427Z,1766.25
2018-06-20T06:52:17.409Z,2401.88
2018-06-20T06:53:17.388Z,1215.00
2018-06-20T06:54:17.373Z,2131.88
2018-06-20T06:55:17.353Z,1794.38
2018-06-20T06:56:17.334Z,2711.25
2018-06-20T06:57:17.316Z,2806.88
2018-06-20T06:58:17.297Z,2233.13
2018-06-20T06:59:17.480Z,1676.25
2018-06-20T07:00:17.259Z,1631.25
2018-06-20T07:01:17.238Z,1288.13
2018-06-20T07:02:59.580Z,1175.63
2018-06-20T07:03:59.360Z,1181.25
2018-06-20T07:04:59.342Z,1603.13
2018-06-20T07:05:59.325Z,1445.63
2018-06-20T07:06:59.503Z,2126.25
2018-06-20T07:07:59.285Z,1378.13
2018-06-20T07:08:59.478Z,1580.63
2018-06-20T07:09:59.245Z,1445.63
2018-06-20T07:10:59.233Z,2553.75
2018-06-20T07:11:59.208Z,2857.50
2018-06-20T07:12:59.395Z,1473.75
2018-06-20T07:13:59.373Z,1383.75
2018-06-20T07:14:59.155Z,2756.25
2018-06-20T07:15:59.129Z,1400.63
2018-06-20T07:16:59.112Z,2694.38
2018-06-20T07:17:59.092Z,2503.13
2018-06-20T07:18:59.074Z,2356.88
2018-06-20T07:19:59.054Z,3211.88
2018-06-20T07:20:59.236Z,2019.38
2018-06-20T07:21:59.221Z,1282.50
2018-06-20T07:22:58.999Z,1991.25
2018-06-20T07:23:58.986Z,3183.75
2018-06-20T07:24:59.166Z,3268.13
2018-06-20T07:25:58.942Z,3313.13
2018-06-20T07:26:58.925Z,1552.50
2018-06-20T07:27:58.906Z,3268.13
2018-06-20T07:28:59.090Z,3076.88
2018-06-20T07:29:58.957Z,1985.63
2018-06-20T07:30:58.853Z,3313.13
2018-06-20T07:31:58.835Z,3256.88
2018-06-20T07:32:58.818Z,3166.88
2018-06-20T07:33:58.800Z,2491.88
2018-06-20T07:34:58.783Z,1333.13
2018-06-20T07:35:58.971Z,1327.50
2018-06-20T07:36:58.748Z,1816.88
2018-06-20T07:37:58.746Z,2019.38
2018-06-20T07:38:58.712Z,1389.38
2018-06-20T07:39:58.692Z,2086.88
2018-06-20T07:40:58.686Z,3020.63
2018-06-20T07:41:58.659Z,2576.25
2018-06-20T07:42:58.647Z,2013.75
2018-06-20T07:43:58.622Z,2058.75
2018-06-20T07:44:58.647Z,1631.25
2018-06-20T07:45:58.589Z,1524.38
2018-06-20T07:46:58.577Z,1653.75
2018-06-20T07:47:58.645Z,3161.25
2018-06-20T07:48:58.534Z,1237.50
2018-06-20T07:49:58.516Z,1057.50
2018-06-20T07:50:58.495Z,990.00
2018-06-20T07:51:58.476Z,1046.25
2018-06-20T07:52:58.458Z,1147.50
2018-06-20T07:53:58.442Z,1265.63
2018-06-20T07:54:58.426Z,1361.25
2018-06-20T07:55:58.409Z,1535.63
2018-06-20T07:56:58.391Z,1749.38
2018-06-20T07:57:58.365Z,1771.88
2018-06-20T07:58:58.348Z,2025.00
2018-06-20T07:59:58.529Z,2621.25
2018-06-20T08:00:58.413Z,2210.63
2018-06-20T08:01:58.293Z,2013.75
2018-06-20T08:02:58.274Z,1648.13
2018-06-20T08:03:58.254Z,1715.63
2018-06-20T08:04:58.236Z,2199.38
2018-06-20T08:05:58.215Z,2328.75
2018-06-20T08:06:58.205Z,2266.88
2018-06-20T08:07:58.175Z,1800.00
2018-06-20T08:08:58.162Z,1591.88
2018-06-20T08:09:58.142Z,1355.63
2018-06-20T08:10:58.133Z,1175.63
2018-06-20T08:11:58.105Z,1096.88
2018-06-20T08:12:58.087Z,1068.75
2018-06-20T08:13:58.066Z,1085.63
2018-06-20T08:14:58.046Z,1175.63
2018-06-20T08:15:58.027Z,1271.25
2018-06-20T08:16:58.010Z,1260.00
2018-06-20T08:17:57.993Z,1215.00
2018-06-20T08:18:58.217Z,1271.25
2018-06-20T08:20:40.312Z,1305.00
2018-06-20T08:21:40.294Z,1215.00
2018-06-20T08:22:40.274Z,1158.75
2018-06-20T08:23:40.256Z,1147.50
2018-06-20T08:24:40.234Z,1136.25
2018-06-20T08:25:40.236Z,1091.25
2018-06-20T08:26:40.203Z,1102.50
2018-06-20T08:27:39.975Z,1113.75
2018-06-20T08:28:39.957Z,1119.38
2018-06-20T08:29:39.947Z,1164.38
2018-06-20T08:30:39.917Z,1226.25
2018-06-20T08:31:39.896Z,1293.75
2018-06-20T08:32:39.877Z,1344.38
2018-06-20T08:33:39.862Z,1395.00
2018-06-20T08:34:39.842Z,1440.00
2018-06-20T08:35:39.818Z,1473.75
2018-06-20T08:36:39.798Z,1513.13
2018-06-20T08:37:39.779Z,1546.88
2018-06-20T08:38:39.757Z,1541.25
2018-06-20T08:39:39.742Z,1479.38
2018-06-20T08:40:39.722Z,1389.38
2018-06-20T08:41:39.700Z,1321.88
2018-06-20T08:42:39.683Z,1276.88
2018-06-20T08:43:39.660Z,1293.75
2018-06-20T08:44:39.641Z,1344.38
2018-06-20T08:45:39.624Z,1411.88
2018-06-20T08:46:39.601Z,1468.13
2018-06-20T08:47:39.586Z,1535.63
2018-06-20T08:48:39.565Z,1586.25
2018-06-20T08:49:39.547Z,1681.88
2018-06-20T08:50:39.525Z,1755.00
2018-06-20T08:51:39.509Z,1895.63
2018-06-20T08:52:39.487Z,2385.00
2018-06-20T08:53:39.467Z,2154.38
2018-06-20T08:54:39.447Z,2103.75
2018-06-20T08:55:39.427Z,1968.75
2018-06-20T08:56:39.408Z,1805.63
2018-06-20T08:57:39.388Z,1693.13
2018-06-20T08:58:39.373Z,1636.88
2018-06-20T08:59:39.360Z,1575.00
2018-06-20T09:00:39.341Z,1507.50
2018-06-20T09:01:39.316Z,1445.63
2018-06-20T09:02:39.297Z,1440.00
2018-06-20T09:03:39.277Z,1479.38
2018-06-20T09:04:39.258Z,1507.50
2018-06-20T09:05:39.237Z,1490.63
2018-06-20T09:06:39.226Z,1406.25
2018-06-20T09:07:39.202Z,1400.63
2018-06-20T09:08:39.192Z,1378.13
2018-06-20T09:09:39.164Z,1406.25
2018-06-20T09:10:39.150Z,1440.00
2018-06-20T09:11:39.129Z,1434.38
2018-06-20T09:12:39.110Z,1406.25
2018-06-20T09:13:39.090Z,1344.38
2018-06-20T09:14:39.073Z,1254.38
2018-06-20T09:15:39.063Z,1215.00
2018-06-20T09:16:39.031Z,1220.63
2018-06-20T09:17:39.011Z,1248.75
2018-06-20T09:18:38.992Z,1282.50
2018-06-20T09:19:38.975Z,1310.63
2018-06-20T09:20:38.956Z,1350.00
2018-06-20T09:21:38.937Z,1406.25
2018-06-20T09:22:38.928Z,1468.13
2018-06-20T09:23:38.894Z,1541.25
2018-06-20T09:24:38.877Z,1608.75
2018-06-20T09:25:38.857Z,1665.00
2018-06-20T09:26:38.846Z,1726.88
2018-06-20T09:27:38.816Z,1788.75
2018-06-20T09:28:38.798Z,1816.88
2018-06-20T09:29:38.778Z,1884.38
2018-06-20T09:30:38.758Z,1867.50
2018-06-20T09:31:38.745Z,1811.25
2018-06-20T09:32:38.720Z,1738.13
2018-06-20T09:33:38.699Z,1620.00
2018-06-20T09:34:38.679Z,1518.75
2018-06-20T09:35:38.666Z,1440.00
2018-06-20T09:36:38.645Z,1395.00
2018-06-20T09:37:38.623Z,1406.25
2018-06-20T09:38:38.629Z,1434.38
2018-06-20T09:39:38.593Z,1451.25
2018-06-20T09:40:38.569Z,1473.75
2018-06-20T09:41:38.545Z,1479.38
2018-06-20T09:42:38.529Z,1496.25
2018-06-20T09:43:38.506Z,1524.38
2018-06-20T09:44:38.541Z,1535.63
2018-06-20T09:45:38.467Z,1530.00
2018-06-20T09:46:38.458Z,1501.88
2018-06-20T09:47:38.689Z,1468.13
2018-06-20T09:48:38.411Z,1462.50
2018-06-20T09:49:38.390Z,1541.25
2018-06-20T09:50:38.374Z,1614.38
2018-06-20T09:51:38.351Z,1659.38
2018-06-20T09:52:38.333Z,1766.25
2018-06-20T09:53:38.313Z,1895.63
2018-06-20T09:54:38.305Z,1918.13
2018-06-20T09:55:38.287Z,1940.63
2018-06-20T09:56:38.260Z,1996.88
2018-06-20T09:57:38.235Z,2154.38
2018-06-20T09:58:38.224Z,2199.38
2018-06-20T09:59:38.254Z,2548.13
2018-06-20T10:00:38.208Z,4770.00
2018-06-20T10:01:38.182Z,2655.00
2018-06-20T10:02:38.143Z,2626.88
2018-06-20T10:04:20.483Z,4230.00
2018-06-20T10:05:20.765Z,2508.75
2018-06-20T10:06:20.315Z,2604.38
2018-06-20T10:07:20.428Z,3093.75
2018-06-20T10:08:20.206Z,3774.38
2018-06-20T10:09:20.390Z,4786.88
2018-06-20T10:10:20.376Z,3206.25
2018-06-20T10:11:20.398Z,4308.75
2018-06-20T10:12:23.027Z,3397.50
2018-06-20T10:13:20.328Z,2835.00
2018-06-20T10:14:20.712Z,3060.00
2018-06-20T10:15:20.289Z,3701.25
2018-06-20T10:16:20.273Z,2874.38
2018-06-20T10:17:20.056Z,2407.50
2018-06-20T10:18:20.050Z,2345.63
2018-06-20T10:19:20.024Z,2615.63
2018-06-20T10:20:20.065Z,3200.63
2018-06-20T10:21:20.250Z,4500.00
2018-06-20T10:22:19.977Z,3127.50
2018-06-20T10:23:19.960Z,2728.13
2018-06-20T10:24:19.954Z,2379.38
2018-06-20T10:25:19.932Z,2503.13
2018-06-20T10:26:19.910Z,2086.88
2018-06-20T10:27:19.894Z,1591.88
2018-06-20T10:28:20.687Z,1366.88
2018-06-20T10:29:19.869Z,1479.38
2018-06-20T10:30:20.051Z,1760.63
2018-06-20T10:31:19.830Z,2148.75
2018-06-20T10:32:19.814Z,2272.50
2018-06-20T10:33:19.795Z,1828.13
2018-06-20T10:34:19.859Z,1800.00
2018-06-20T10:35:19.763Z,2171.25
2018-06-20T10:36:19.747Z,1974.38
2018-06-20T10:37:19.928Z,1951.88
2018-06-20T10:38:19.708Z,3926.25
2018-06-20T10:39:19.688Z,2244.38
2018-06-20T10:40:19.671Z,2373.75
2018-06-20T10:41:19.653Z,2598.75
2018-06-20T10:42:19.638Z,2570.63
2018-06-20T10:43:19.626Z,2109.38
2018-06-20T10:44:19.607Z,1698.75
2018-06-20T10:45:19.583Z,1642.50
2018-06-20T10:46:19.642Z,1811.25
2018-06-20T10:47:19.748Z,3802.50
2018-06-20T10:48:19.531Z,1980.00
2018-06-20T10:49:19.568Z,1884.38
2018-06-20T10:50:19.496Z,2047.50
2018-06-20T10:51:19.478Z,4252.50
2018-06-20T10:52:19.765Z,1935.00
2018-06-20T10:53:19.446Z,4646.25
2018-06-20T10:54:19.472Z,3369.38
2018-06-20T10:55:19.407Z,4173.75
2018-06-20T10:56:19.392Z,2801.25
2018-06-20T10:57:19.374Z,2469.38
2018-06-20T10:58:19.556Z,4871.25
2018-06-20T10:59:19.542Z,4933.13
2018-06-20T11:00:19.574Z,4989.38
2018-06-20T11:02:43.829Z,2255.63
2018-06-20T11:03:43.619Z,2531.25
2018-06-20T11:04:43.598Z,4432.50
2018-06-20T11:06:25.937Z,2666.25
2018-06-20T11:07:25.922Z,4179.38
2018-06-20T11:08:25.704Z,3600.00
2018-06-20T11:09:25.890Z,2143.13
2018-06-20T11:10:25.682Z,2171.25
2018-06-20T11:11:25.659Z,3943.13
2018-06-20T11:12:25.643Z,4623.75
2018-06-20T11:13:25.629Z,2970.00
2018-06-20T11:14:25.617Z,2306.25
2018-06-20T11:15:25.668Z,2278.13
2018-06-20T11:16:25.596Z,2514.38
2018-06-20T11:17:25.567Z,2542.50
2018-06-20T11:18:25.555Z,2165.63
2018-06-20T11:19:25.536Z,4494.38
2018-06-20T11:20:25.521Z,4106.25
2018-06-20T11:21:25.504Z,1490.63
2018-06-20T11:22:25.492Z,1479.38
2018-06-20T11:23:25.677Z,2075.63
2018-06-20T11:24:25.664Z,4308.75
2018-06-20T11:25:25.457Z,3487.50
2018-06-20T11:26:25.429Z,3965.63
2018-06-20T11:27:25.413Z,3796.88
2018-06-20T11:28:25.397Z,5265.00
2018-06-20T11:29:25.380Z,3217.50
2018-06-20T11:30:25.366Z,2986.88
2018-06-20T11:31:25.348Z,3262.50
2018-06-20T11:32:25.333Z,4477.50
2018-06-20T11:33:25.320Z,4933.13
2018-06-20T11:34:25.508Z,3577.50
2018-06-20T11:35:25.289Z,3301.88
2018-06-20T11:36:25.477Z,3127.50
2018-06-20T11:37:25.264Z,3695.63
2018-06-20T11:38:25.245Z,4635.00
2018-06-20T11:39:25.271Z,4421.25
2018-06-20T11:40:25.215Z,4483.13
2018-06-20T11:41:25.401Z,4275.00
2018-06-20T11:42:25.385Z,3825.00
2018-06-20T11:43:25.371Z,4618.13
2018-06-20T11:44:26.168Z,4584.38
2018-06-20T11:45:25.345Z,4218.75
2018-06-20T11:46:25.332Z,2542.50
2018-06-20T11:47:25.114Z,2306.25
2018-06-20T11:48:25.100Z,2351.25
2018-06-20T11:49:25.085Z,2823.75
2018-06-20T11:50:25.072Z,3960.00
2018-06-20T11:51:25.056Z,4050.00
2018-06-20T11:52:25.042Z,4280.63
2018-06-20T11:53:25.028Z,4460.63
2018-06-20T11:54:28.647Z,4432.50
2018-06-20T11:55:25.206Z,4651.88
2018-06-20T11:56:25.191Z,4561.88
2018-06-20T11:57:25.177Z,4764.38
2018-06-20T11:58:28.198Z,4921.88
2018-06-20T11:59:25.149Z,4876.88
2018-06-20T12:00:25.137Z,2047.50
2018-06-20T12:01:25.122Z,1951.88
2018-06-20T12:02:25.918Z,2818.13
2018-06-20T12:03:25.099Z,1749.38
2018-06-20T12:04:25.083Z,2103.75
2018-06-20T12:05:25.069Z,2559.38
2018-06-20T12:07:07.822Z,2458.13
2018-06-20T12:08:11.035Z,4747.50
2018-06-20T12:09:07.186Z,1951.88
2018-06-20T12:10:07.172Z,1805.63
2018-06-20T12:11:07.154Z,2064.38
2018-06-20T12:12:07.137Z,4455.00
2018-06-20T12:13:07.334Z,1946.25
2018-06-20T12:14:07.109Z,1648.13
2018-06-20T12:15:07.099Z,1608.75
2018-06-20T12:16:09.702Z,1906.88
2018-06-20T12:17:08.072Z,4567.50
2018-06-20T12:18:06.841Z,4511.25
2018-06-20T12:19:06.839Z,1906.88
2018-06-20T12:20:06.811Z,1788.75
2018-06-20T12:21:06.796Z,1856.25
2018-06-20T12:22:06.860Z,1878.75
2018-06-20T12:23:06.965Z,1681.88
2018-06-20T12:24:06.946Z,1648.13
2018-06-20T12:35:39.489Z,1732.50
2018-06-20T12:37:21.423Z,2137.50
2018-06-20T12:38:21.221Z,2272.50
2018-06-20T12:39:21.183Z,4865.63
2018-06-20T12:40:21.163Z,5017.50
2018-06-20T12:41:21.196Z,4370.63
2018-06-20T12:42:21.135Z,4550.63